Time;durP1;ratioP1;P1;durP2;ratioP2;P2;SDS_P1;SDS_P2;PMS_P1;PMS_P2;Temp;Humidity;BMP_temperature;BMP_pressure;BME280_temperature;BME280_humidity;BME280_pressure;Samples;Min_cycle;Max_cycle;Signal;HPM_P1;HPM_P2
2023/12/19 00:00:01;;;;;;;30.55;28.67;;;;;;;;;;5014577;28;20100;-95
2023/12/19 00:02:27;;;;;;;22.63;21.38;;;;;;;;;;5013922;28;20109;-94
2023/12/19 00:04:55;;;;;;;25.27;24.15;;;;;;;;;;5014308;28;20112;-93
2023/12/19 00:07:22;;;;;;;20.83;19.52;;;;;;;;;;5014184;28;20510;-94
2023/12/19 00:09:49;;;;;;;17.75;16.55;;;;;;;;;;5013936;28;20109;-93
2023/12/19 00:12:15;;;;;;;21.92;20.63;;;;;;;;;;5014228;28;20476;-94
2023/12/19 00:14:42;;;;;;;25.45;24.08;;;;;;;;;;5014022;28;20050;-94
2023/12/19 00:17:08;;;;;;;25.17;23.58;;;;;;;;;;5013949;28;20054;-93
2023/12/19 00:19:35;;;;;;;25.80;24.17;;;;;;;;;;5013957;28;20458;-95
2023/12/19 00:22:03;;;;;;;25.67;24.02;;;;;;;;;;5013994;28;20097;-95
2023/12/19 00:24:29;;;;;;;23.73;22.02;;;;;;;;;;5013976;28;20049;-94
2023/12/19 00:26:56;;;;;;;21.23;20.13;;;;;;;;;;5013897;28;20530;-95
2023/12/19 00:29:22;;;;;;;21.83;20.45;;;;;;;;;;5011074;28;20395;-93
2023/12/19 00:31:51;;;;;;;18.60;17.77;;;;;;;;;;5013922;28;20058;-92
2023/12/19 00:34:18;;;;;;;30.77;28.58;;;;;;;;;;5013687;28;20045;-94
2023/12/19 00:36:44;;;;;;;17.67;16.77;;;;;;;;;;5013974;28;20050;-94
2023/12/19 00:39:12;;;;;;;26.23;24.77;;;;;;;;;;5013766;28;20411;-94
2023/12/19 00:41:39;;;;;;;17.55;16.65;;;;;;;;;;5013709;28;20474;-93
2023/12/19 00:44:05;;;;;;;29.73;28.27;;;;;;;;;;5013620;28;20045;-94
2023/12/19 00:46:32;;;;;;;21.42;19.67;;;;;;;;;;5013991;28;20145;-94
2023/12/19 00:48:58;;;;;;;23.33;22.00;;;;;;;;;;5013787;28;20046;-94
2023/12/19 00:51:25;;;;;;;16.60;15.30;;;;;;;;;;5013750;28;20510;-94
2023/12/19 00:53:51;;;;;;;27.25;25.40;;;;;;;;;;5014254;28;20057;-94
2023/12/19 00:56:19;;;;;;;29.20;26.65;;;;;;;;;;5013712;28;20441;-92
2023/12/19 00:58:46;;;;;;;24.95;23.83;;;;;;;;;;4996577;28;20050;-92
2023/12/19 01:01:12;;;;;;;19.60;18.67;;;;;;;;;;5021731;28;20466;-93
2023/12/19 01:03:39;;;;;;;20.77;19.42;;;;;;;;;;5026160;28;20093;-92
2023/12/19 01:06:06;;;;;;;18.88;18.05;;;;;;;;;;5013316;28;20087;-92
2023/12/19 01:08:33;;;;;;;20.80;19.42;;;;;;;;;;5006953;28;20101;-92
2023/12/19 01:10:59;;;;;;;25.30;23.83;;;;;;;;;;4998031;28;20101;-92
2023/12/19 01:13:28;;;;;;;24.20;22.92;;;;;;;;;;4997723;28;20096;-92
2023/12/19 01:15:55;;;;;;;22.95;21.73;;;;;;;;;;4997818;28;20054;-92
2023/12/19 01:18:21;;;;;;;17.33;16.52;;;;;;;;;;4997439;28;20054;-92
2023/12/19 01:20:49;;;;;;;19.98;18.83;;;;;;;;;;5006555;28;20084;-92
2023/12/19 01:23:15;;;;;;;21.30;19.80;;;;;;;;;;5017582;28;20472;-92
2023/12/19 01:25:42;;;;;;;22.40;21.30;;;;;;;;;;5018479;28;20046;-92
2023/12/19 01:28:08;;;;;;;20.70;19.70;;;;;;;;;;5018978;28;20061;-92
2023/12/19 01:30:36;;;;;;;17.30;16.55;;;;;;;;;;5019050;28;20108;-94
2023/12/19 01:33:03;;;;;;;17.10;16.00;;;;;;;;;;5019142;28;20050;-94
2023/12/19 01:35:30;;;;;;;16.55;15.75;;;;;;;;;;5017932;28;20045;-93
2023/12/19 01:37:56;;;;;;;26.08;24.95;;;;;;;;;;5016699;28;20058;-93
2023/12/19 01:40:23;;;;;;;18.75;17.48;;;;;;;;;;5016730;28;20100;-93
2023/12/19 01:42:49;;;;;;;14.98;13.77;;;;;;;;;;5016870;28;20046;-93
2023/12/19 01:45:16;;;;;;;12.90;12.30;;;;;;;;;;5016639;28;20042;-93
2023/12/19 01:47:44;;;;;;;17.00;16.27;;;;;;;;;;5016464;28;20054;-93
2023/12/19 01:50:12;;;;;;;19.98;19.05;;;;;;;;;;5016474;28;20100;-93
2023/12/19 01:52:40;;;;;;;15.20;14.25;;;;;;;;;;5016716;28;20050;-92
2023/12/19 01:55:07;;;;;;;22.05;20.80;;;;;;;;;;5016460;28;20042;-92
2023/12/19 01:57:34;;;;;;;27.10;25.85;;;;;;;;;;5016611;28;20462;-92
2023/12/19 02:00:01;;;;;;;22.92;21.85;;;;;;;;;;5016751;28;20042;-94
2023/12/19 02:02:28;;;;;;;19.13;18.23;;;;;;;;;;5016793;28;20050;-94
2023/12/19 02:04:57;;;;;;;24.45;23.10;;;;;;;;;;5015938;28;20495;-94
2023/12/19 02:07:23;;;;;;;18.88;17.80;;;;;;;;;;5016253;28;20514;-94
2023/12/19 02:09:50;;;;;;;18.90;16.98;;;;;;;;;;5016435;28;20058;-93
2023/12/19 02:12:17;;;;;;;15.30;14.05;;;;;;;;;;5016514;28;20050;-94
2023/12/19 02:14:44;;;;;;;21.23;20.27;;;;;;;;;;5015807;28;20388;-96
2023/12/19 02:17:11;;;;;;;12.57;11.90;;;;;;;;;;5016369;28;20054;-93
2023/12/19 02:19:43;;;;;;;28.10;26.40;;;;;;;;;;5015927;28;20136;-93
2023/12/19 02:22:11;;;;;;;26.02;24.80;;;;;;;;;;5015862;28;20104;-93
2023/12/19 02:24:39;;;;;;;18.30;17.30;;;;;;;;;;5016014;28;20046;-92
2023/12/19 02:27:05;;;;;;;22.27;20.65;;;;;;;;;;5015766;28;20058;-92
2023/12/19 02:29:32;;;;;;;16.63;15.75;;;;;;;;;;5015735;28;20454;-92
2023/12/19 02:31:59;;;;;;;21.00;19.98;;;;;;;;;;5015985;28;20058;-92
2023/12/19 02:34:25;;;;;;;15.77;14.95;;;;;;;;;;5015780;28;20104;-93
2023/12/19 02:36:52;;;;;;;23.38;21.77;;;;;;;;;;5016020;28;20057;-93
2023/12/19 02:39:18;;;;;;;19.42;18.63;;;;;;;;;;5015343;28;20092;-92
2023/12/19 02:41:46;;;;;;;18.80;17.63;;;;;;;;;;5015382;28;20562;-92
2023/12/19 02:44:13;;;;;;;19.55;18.45;;;;;;;;;;5015302;28;20438;-92
2023/12/19 02:46:39;;;;;;;20.95;20.15;;;;;;;;;;5015753;28;20053;-92
2023/12/19 02:49:06;;;;;;;27.95;26.08;;;;;;;;;;5015324;28;20565;-92
2023/12/19 02:51:32;;;;;;;18.95;17.73;;;;;;;;;;5015749;28;20053;-92
2023/12/19 02:53:59;;;;;;;22.15;21.05;;;;;;;;;;5015578;28;20494;-91
2023/12/19 02:56:28;;;;;;;22.15;20.67;;;;;;;;;;5014905;28;20553;-92
2023/12/19 02:58:56;;;;;;;20.30;19.25;;;;;;;;;;5015526;28;20100;-93
2023/12/19 03:01:22;;;;;;;20.67;19.30;;;;;;;;;;5015456;28;20131;-93
2023/12/19 03:03:49;;;;;;;20.10;18.52;;;;;;;;;;5015053;28;20050;-93
2023/12/19 03:06:16;;;;;;;27.73;25.63;;;;;;;;;;5015243;28;20115;-93
2023/12/19 03:08:44;;;;;;;15.38;14.52;;;;;;;;;;5015196;28;20140;-92
2023/12/19 03:11:11;;;;;;;24.48;23.20;;;;;;;;;;5014950;28;20058;-93
2023/12/19 03:13:37;;;;;;;19.08;18.10;;;;;;;;;;5015244;28;20049;-92
2023/12/19 03:16:06;;;;;;;24.10;23.00;;;;;;;;;;5015186;28;20053;-92
2023/12/19 03:18:32;;;;;;;23.75;22.65;;;;;;;;;;5015126;28;20054;-93
2023/12/19 03:20:59;;;;;;;16.25;15.60;;;;;;;;;;5014769;28;20507;-94
2023/12/19 03:23:27;;;;;;;15.43;14.45;;;;;;;;;;5014456;28;20050;-93
2023/12/19 03:25:53;;;;;;;19.55;18.45;;;;;;;;;;5013781;28;20061;-94
2023/12/19 03:28:20;;;;;;;17.20;15.98;;;;;;;;;;5014554;28;20119;-93
2023/12/19 03:30:46;;;;;;;16.65;15.60;;;;;;;;;;5014922;28;20115;-93
2023/12/19 03:33:14;;;;;;;13.60;12.93;;;;;;;;;;5014970;28;20046;-92
2023/12/19 03:35:41;;;;;;;15.70;14.90;;;;;;;;;;5014681;28;20053;-93
2023/12/19 03:38:07;;;;;;;19.75;18.90;;;;;;;;;;5014405;28;20100;-92
2023/12/19 03:40:35;;;;;;;19.23;18.23;;;;;;;;;;5014566;28;20054;-92
2023/12/19 03:43:02;;;;;;;17.90;16.90;;;;;;;;;;5014423;28;20499;-93
2023/12/19 03:45:28;;;;;;;20.08;19.25;;;;;;;;;;5014646;28;20088;-93
2023/12/19 03:47:55;;;;;;;19.85;18.77;;;;;;;;;;5014344;28;20050;-93
2023/12/19 03:50:23;;;;;;;21.33;20.42;;;;;;;;;;5014668;28;20057;-92
2023/12/19 03:52:49;;;;;;;28.30;26.70;;;;;;;;;;5014236;28;20096;-93
2023/12/19 03:55:16;;;;;;;16.60;15.82;;;;;;;;;;5014108;28;20054;-92
2023/12/19 03:57:42;;;;;;;19.63;18.35;;;;;;;;;;5014462;28;20503;-93
2023/12/19 04:00:10;;;;;;;17.20;16.20;;;;;;;;;;5014522;28;20112;-93
2023/12/19 04:02:36;;;;;;;16.60;15.57;;;;;;;;;;5014497;28;20136;-92
2023/12/19 04:05:03;;;;;;;14.68;13.85;;;;;;;;;;5014409;28;20061;-93
2023/12/19 04:07:32;;;;;;;16.92;15.55;;;;;;;;;;5013529;28;20743;-93
2023/12/19 04:09:58;;;;;;;19.00;17.85;;;;;;;;;;5014306;28;20136;-92
2023/12/19 04:12:25;;;;;;;16.17;15.27;;;;;;;;;;5014247;28;20054;-93
2023/12/19 04:14:51;;;;;;;24.58;22.67;;;;;;;;;;5013869;28;20053;-93
2023/12/19 04:17:18;;;;;;;17.45;16.45;;;;;;;;;;5014151;28;20050;-95
2023/12/19 04:19:44;;;;;;;18.33;17.40;;;;;;;;;;5013843;28;20046;-93
2023/12/19 04:22:11;;;;;;;19.05;17.77;;;;;;;;;;5013711;28;20046;-93
2023/12/19 04:24:39;;;;;;;16.00;15.15;;;;;;;;;;5013713;28;20099;-93
2023/12/19 04:27:05;;;;;;;19.98;18.98;;;;;;;;;;5013716;28;20482;-93
2023/12/19 04:29:32;;;;;;;16.70;15.93;;;;;;;;;;5014257;28;20057;-93
2023/12/19 04:31:59;;;;;;;18.35;17.35;;;;;;;;;;5013818;28;20065;-93
2023/12/19 04:34:25;;;;;;;17.20;16.02;;;;;;;;;;5014157;28;20092;-94
2023/12/19 04:36:52;;;;;;;22.05;20.65;;;;;;;;;;5013579;28;20498;-93
2023/12/19 04:39:18;;;;;;;20.00;19.05;;;;;;;;;;5013839;28;20100;-94
2023/12/19 04:41:46;;;;;;;14.85;13.93;;;;;;;;;;5013686;28;20104;-94
2023/12/19 04:44:12;;;;;;;19.27;18.02;;;;;;;;;;5013886;28;20042;-93
2023/12/19 04:46:42;;;;;;;22.40;21.10;;;;;;;;;;5013627;28;20483;-94
2023/12/19 04:49:08;;;;;;;13.77;13.10;;;;;;;;;;5013768;28;20108;-93
2023/12/19 04:51:35;;;;;;;24.00;22.67;;;;;;;;;;5013936;28;20116;-93
2023/12/19 04:54:03;;;;;;;16.55;15.57;;;;;;;;;;5013421;28;20092;-93
2023/12/19 04:56:29;;;;;;;21.25;19.85;;;;;;;;;;5013498;28;20054;-94
2023/12/19 04:58:57;;;;;;;23.90;21.63;;;;;;;;;;5013709;28;20050;-94
2023/12/19 05:01:24;;;;;;;16.42;15.20;;;;;;;;;;5013316;28;20046;-94
2023/12/19 05:03:50;;;;;;;17.60;16.45;;;;;;;;;;5013492;28;20100;-92
2023/12/19 05:06:17;;;;;;;20.30;18.98;;;;;;;;;;5013494;28;20053;-92
2023/12/19 05:08:45;;;;;;;17.48;15.82;;;;;;;;;;5013464;28;20080;-93
2023/12/19 05:11:11;;;;;;;16.20;15.02;;;;;;;;;;5013128;28;20132;-92
2023/12/19 05:13:38;;;;;;;16.55;15.75;;;;;;;;;;5013715;28;20042;-92
2023/12/19 05:16:12;;;;;;;18.08;17.15;;;;;;;;;;5013617;28;20049;-92
2023/12/19 05:18:40;;;;;;;26.30;25.25;;;;;;;;;;5013885;28;20046;-90
2023/12/19 05:21:07;;;;;;;18.85;17.38;;;;;;;;;;5013928;28;20466;-92
2023/12/19 05:23:33;;;;;;;15.95;14.95;;;;;;;;;;5012978;28;20043;-92
2023/12/19 05:25:59;;;;;;;28.65;26.73;;;;;;;;;;5013349;28;20216;-92
2023/12/19 05:28:26;;;;;;;17.85;17.05;;;;;;;;;;5012905;28;20068;-92
2023/12/19 05:30:56;;;;;;;18.10;17.30;;;;;;;;;;5013452;28;20053;-93
2023/12/19 05:33:24;;;;;;;25.02;23.90;;;;;;;;;;5013496;28;20140;-93
2023/12/19 05:35:50;;;;;;;23.95;22.80;;;;;;;;;;5013563;28;20423;-93
2023/12/19 05:38:17;;;;;;;28.92;26.45;;;;;;;;;;5013108;28;20046;-93
2023/12/19 05:40:43;;;;;;;25.70;23.98;;;;;;;;;;5013530;28;20104;-92
2023/12/19 05:43:10;;;;;;;19.83;18.45;;;;;;;;;;5013185;28;20514;-92
2023/12/19 05:45:36;;;;;;;25.38;23.95;;;;;;;;;;5013106;28;20419;-90
2023/12/19 05:48:03;;;;;;;16.10;15.27;;;;;;;;;;5013248;28;20104;-90
2023/12/19 05:50:31;;;;;;;24.38;23.15;;;;;;;;;;5017107;28;20054;-91
2023/12/19 05:52:58;;;;;;;20.92;19.83;;;;;;;;;;5016955;28;20112;-92
2023/12/19 05:55:24;;;;;;;25.92;24.75;;;;;;;;;;5001390;28;20096;-92
2023/12/19 05:57:51;;;;;;;24.05;23.02;;;;;;;;;;5017146;28;20141;-93
2023/12/19 06:00:18;;;;;;;17.88;16.73;;;;;;;;;;5017157;28;20123;-92
2023/12/19 06:02:44;;;;;;;26.17;24.73;;;;;;;;;;5016715;28;20085;-93
2023/12/19 06:05:11;;;;;;;20.38;19.45;;;;;;;;;;5016664;28;20049;-92
2023/12/19 06:07:41;;;;;;;14.77;13.52;;;;;;;;;;5016893;28;20052;-92
2023/12/19 06:10:09;;;;;;;18.98;17.85;;;;;;;;;;5016036;28;20105;-92
2023/12/19 06:12:36;;;;;;;20.65;19.42;;;;;;;;;;5016322;28;20487;-94
2023/12/19 06:15:02;;;;;;;17.13;16.10;;;;;;;;;;5016321;28;20046;-93
2023/12/19 06:17:29;;;;;;;22.67;21.52;;;;;;;;;;5016169;28;20141;-91
2023/12/19 06:19:56;;;;;;;20.23;18.88;;;;;;;;;;5016468;28;20050;-91
2023/12/19 06:22:22;;;;;;;23.80;21.95;;;;;;;;;;5016199;28;20465;-91
2023/12/19 06:24:50;;;;;;;20.92;19.83;;;;;;;;;;5015551;28;20108;-92
2023/12/19 06:27:17;;;;;;;15.63;14.93;;;;;;;;;;5016129;28;20150;-92
2023/12/19 06:29:43;;;;;;;19.17;17.40;;;;;;;;;;5016160;28;20058;-91
2023/12/19 06:32:10;;;;;;;17.20;15.60;;;;;;;;;;5016002;28;20112;-94
2023/12/19 06:34:37;;;;;;;23.20;22.15;;;;;;;;;;5015914;28;20132;-93
2023/12/19 06:37:04;;;;;;;17.60;16.50;;;;;;;;;;5015768;28;20104;-93
2023/12/19 06:39:30;;;;;;;18.25;17.25;;;;;;;;;;5013682;28;20053;-92
2023/12/19 06:41:58;;;;;;;14.82;14.18;;;;;;;;;;5011209;28;20454;-93
2023/12/19 06:44:25;;;;;;;18.10;17.40;;;;;;;;;;5015513;28;20061;-92
2023/12/19 06:46:51;;;;;;;25.33;24.20;;;;;;;;;;5015073;28;20053;-92
2023/12/19 06:49:18;;;;;;;22.55;21.30;;;;;;;;;;5015231;28;20049;-93
2023/12/19 06:51:44;;;;;;;24.88;23.77;;;;;;;;;;5015320;28;20494;-93
2023/12/19 06:54:11;;;;;;;18.85;17.60;;;;;;;;;;5015284;28;20061;-93
2023/12/19 06:56:38;;;;;;;18.60;17.50;;;;;;;;;;5014747;28;20561;-93
2023/12/19 06:59:06;;;;;;;23.10;22.10;;;;;;;;;;5015138;28;20057;-94
2023/12/19 07:01:33;;;;;;;21.70;20.30;;;;;;;;;;5015032;28;20049;-94
2023/12/19 07:03:59;;;;;;;24.55;23.13;;;;;;;;;;5015336;28;20062;-95
2023/12/19 07:06:26;;;;;;;17.20;16.48;;;;;;;;;;5014843;28;20041;-93
2023/12/19 07:08:52;;;;;;;27.25;25.83;;;;;;;;;;5014597;28;20092;-93
2023/12/19 07:11:20;;;;;;;28.50;26.85;;;;;;;;;;5015058;28;20050;-93
2023/12/19 07:13:46;;;;;;;23.45;22.02;;;;;;;;;;5010372;28;20071;-92
2023/12/19 07:16:17;;;;;;;21.17;20.35;;;;;;;;;;5012949;28;20046;-93
2023/12/19 07:18:44;;;;;;;22.52;21.13;;;;;;;;;;5014550;28;20081;-93
2023/12/19 07:21:18;;;;;;;23.20;21.98;;;;;;;;;;5014166;28;20565;-92
2023/12/19 07:23:44;;;;;;;16.88;16.13;;;;;;;;;;5014862;28;20054;-93
2023/12/19 07:26:19;;;;;;;19.98;18.75;;;;;;;;;;5014529;28;20050;-93
2023/12/19 07:28:45;;;;;;;17.35;16.52;;;;;;;;;;5014502;28;20054;-92
2023/12/19 07:31:20;;;;;;;17.95;17.17;;;;;;;;;;5014842;28;20124;-92
2023/12/19 07:33:46;;;;;;;23.55;22.33;;;;;;;;;;5015082;28;20463;-93
2023/12/19 07:36:13;;;;;;;22.52;20.98;;;;;;;;;;5014637;28;20050;-92
2023/12/19 07:38:39;;;;;;;18.48;17.40;;;;;;;;;;5013850;28;20049;-92
2023/12/19 07:41:06;;;;;;;24.90;23.63;;;;;;;;;;5014698;28;20108;-92
2023/12/19 07:43:32;;;;;;;19.80;18.88;;;;;;;;;;5014241;28;20104;-92
2023/12/19 07:45:59;;;;;;;27.15;25.50;;;;;;;;;;5014674;28;20071;-93
2023/12/19 07:48:27;;;;;;;17.92;17.15;;;;;;;;;;5014379;28;20474;-93
2023/12/19 07:50:54;;;;;;;20.88;19.98;;;;;;;;;;5014343;28;20049;-92
2023/12/19 07:53:21;;;;;;;23.75;22.23;;;;;;;;;;5014260;28;20100;-92
2023/12/19 07:55:47;;;;;;;24.85;23.85;;;;;;;;;;5014065;28;20104;-92
2023/12/19 07:58:14;;;;;;;23.60;22.63;;;;;;;;;;5014046;28;20046;-93
2023/12/19 08:00:41;;;;;;;20.45;18.90;;;;;;;;;;5013827;28;20092;-92
2023/12/19 08:03:11;;;;;;;17.83;16.95;;;;;;;;;;5013938;28;20086;-90
2023/12/19 08:05:41;;;;;;;24.30;23.05;;;;;;;;;;5013850;28;20046;-89
2023/12/19 08:08:08;;;;;;;25.23;23.95;;;;;;;;;;5013732;28;20517;-92
2023/12/19 08:10:34;;;;;;;23.35;22.27;;;;;;;;;;5006957;28;20049;-93
2023/12/19 08:13:01;;;;;;;29.23;27.98;;;;;;;;;;5013411;28;20503;-93
2023/12/19 08:15:27;;;;;;;23.38;21.55;;;;;;;;;;5008219;28;20046;-93
2023/12/19 08:17:54;;;;;;;32.40;29.85;;;;;;;;;;5013893;28;20045;-93
2023/12/19 08:20:20;;;;;;;28.77;27.50;;;;;;;;;;5013854;28;20415;-93
2023/12/19 08:22:49;;;;;;;22.10;20.77;;;;;;;;;;5013767;28;20136;-92
2023/12/19 08:25:15;;;;;;;26.83;25.02;;;;;;;;;;5013548;28;20061;-93
2023/12/19 08:27:42;;;;;;;26.40;24.52;;;;;;;;;;5009848;28;20058;-93
2023/12/19 08:30:10;;;;;;;27.55;26.42;;;;;;;;;;5013425;28;20108;-93
2023/12/19 08:32:36;;;;;;;26.15;24.77;;;;;;;;;;5013295;28;20085;-93
2023/12/19 08:35:04;;;;;;;23.60;22.10;;;;;;;;;;5016071;28;20046;-92
2023/12/19 08:37:30;;;;;;;23.40;22.23;;;;;;;;;;5013420;28;20108;-92
2023/12/19 08:40:02;;;;;;;28.42;26.80;;;;;;;;;;5013211;28;20423;-92
2023/12/19 08:42:29;;;;;;;21.30;19.77;;;;;;;;;;5008165;28;20077;-93
2023/12/19 08:44:56;;;;;;;33.47;31.75;;;;;;;;;;5013117;28;20046;-93
2023/12/19 08:47:22;;;;;;;32.88;31.45;;;;;;;;;;5013298;28;20136;-93
2023/12/19 08:49:52;;;;;;;23.80;22.42;;;;;;;;;;5013270;28;20416;-93
2023/12/19 08:52:19;;;;;;;24.35;22.27;;;;;;;;;;5008825;28;20056;-93
2023/12/19 08:54:45;;;;;;;24.67;22.95;;;;;;;;;;5013086;28;20057;-94
2023/12/19 08:57:13;;;;;;;29.10;27.67;;;;;;;;;;5013683;28;20565;-94
2023/12/19 08:59:40;;;;;;;17.48;16.73;;;;;;;;;;5013498;28;20557;-94
2023/12/19 09:02:07;;;;;;;27.88;26.60;;;;;;;;;;5013446;28;20065;-93
2023/12/19 09:04:33;;;;;;;31.92;29.80;;;;;;;;;;5013184;28;20564;-93
2023/12/19 09:07:00;;;;;;;24.23;22.58;;;;;;;;;;5013143;28;20557;-93
2023/12/19 09:09:27;;;;;;;26.65;25.13;;;;;;;;;;5013418;28;20193;-94
2023/12/19 09:11:54;;;;;;;23.00;21.58;;;;;;;;;;5013447;28;20056;-94
2023/12/19 09:14:22;;;;;;;26.73;25.48;;;;;;;;;;5013595;28;20061;-93
2023/12/19 09:16:49;;;;;;;23.85;22.40;;;;;;;;;;4993957;28;20046;-94
2023/12/19 09:19:16;;;;;;;23.92;22.73;;;;;;;;;;4993955;28;20054;-95
2023/12/19 09:21:43;;;;;;;26.30;24.73;;;;;;;;;;4993781;28;20061;-93
2023/12/19 09:24:09;;;;;;;30.75;28.95;;;;;;;;;;4995293;28;20502;-94
2023/12/19 09:26:38;;;;;;;26.17;24.58;;;;;;;;;;4997271;28;20097;-93
2023/12/19 09:29:06;;;;;;;29.13;27.00;;;;;;;;;;4997118;28;20149;-94
2023/12/19 09:31:34;;;;;;;22.33;20.95;;;;;;;;;;4997530;28;20066;-94
2023/12/19 09:34:02;;;;;;;29.63;28.10;;;;;;;;;;4997347;28;20042;-95
2023/12/19 09:36:28;;;;;;;28.95;27.60;;;;;;;;;;4997409;28;20471;-93
2023/12/19 09:38:55;;;;;;;24.48;22.80;;;;;;;;;;4997105;28;20396;-94
2023/12/19 09:41:22;;;;;;;30.75;28.85;;;;;;;;;;4997433;28;20091;-95
2023/12/19 09:43:48;;;;;;;27.77;26.30;;;;;;;;;;4997041;28;20117;-94
2023/12/19 09:46:15;;;;;;;25.58;24.08;;;;;;;;;;5003054;28;20560;-95
2023/12/19 09:48:44;;;;;;;28.05;26.48;;;;;;;;;;5012238;28;20057;-94
2023/12/19 09:51:18;;;;;;;24.02;22.83;;;;;;;;;;5019171;28;20049;-94
2023/12/19 09:53:45;;;;;;;28.80;27.30;;;;;;;;;;5016718;28;20097;-93
2023/12/19 09:56:11;;;;;;;26.50;24.92;;;;;;;;;;5016672;28;20458;-95
2023/12/19 09:58:38;;;;;;;31.55;29.90;;;;;;;;;;5020470;28;20049;-94
2023/12/19 10:01:05;;;;;;;25.58;23.80;;;;;;;;;;5034802;28;20080;-95
2023/12/19 10:03:31;;;;;;;30.15;28.60;;;;;;;;;;5016825;28;20054;-95
2023/12/19 10:06:00;;;;;;;21.92;20.88;;;;;;;;;;5035449;28;20042;-94
2023/12/19 10:08:27;;;;;;;32.72;30.88;;;;;;;;;;5035857;28;20060;-94
2023/12/19 10:10:54;;;;;;;23.27;21.17;;;;;;;;;;5036358;28;20080;-93
2023/12/19 10:13:28;;;;;;;25.75;24.40;;;;;;;;;;5035980;28;20413;-94
2023/12/19 10:16:01;;;;;;;23.17;22.20;;;;;;;;;;5034859;28;20045;-94
2023/12/19 10:18:27;;;;;;;19.80;18.42;;;;;;;;;;5035614;28;20099;-93
2023/12/19 10:21:02;;;;;;;19.92;18.50;;;;;;;;;;5019385;28;20053;-94
2023/12/19 10:23:29;;;;;;;25.92;23.98;;;;;;;;;;5019024;28;20506;-94
2023/12/19 10:25:55;;;;;;;27.90;25.95;;;;;;;;;;5023211;28;20049;-93
2023/12/19 10:28:22;;;;;;;37.00;34.97;;;;;;;;;;5018217;28;20054;-94
2023/12/19 10:30:48;;;;;;;27.17;25.20;;;;;;;;;;5018410;28;20116;-93
2023/12/19 10:33:15;;;;;;;35.90;33.75;;;;;;;;;;5018052;28;20112;-93
2023/12/19 10:35:42;;;;;;;26.52;24.83;;;;;;;;;;5015485;28;20046;-94
2023/12/19 10:38:10;;;;;;;26.83;25.10;;;;;;;;;;5015648;28;20108;-94
2023/12/19 10:40:37;;;;;;;29.42;26.42;;;;;;;;;;5015503;28;20041;-93
2023/12/19 10:43:04;;;;;;;28.52;26.98;;;;;;;;;;5015520;28;20054;-94
2023/12/19 10:45:31;;;;;;;27.17;25.75;;;;;;;;;;5015655;28;20049;-94
2023/12/19 10:47:57;;;;;;;33.55;31.27;;;;;;;;;;5015688;28;20124;-94
2023/12/19 10:50:24;;;;;;;25.15;23.88;;;;;;;;;;5012089;28;20054;-94
2023/12/19 10:52:51;;;;;;;21.23;20.15;;;;;;;;;;5015000;28;20577;-92
2023/12/19 10:55:21;;;;;;;29.85;27.88;;;;;;;;;;5014932;28;20050;-93
2023/12/19 10:57:48;;;;;;;36.47;34.60;;;;;;;;;;5015287;28;20085;-93
2023/12/19 11:00:21;;;;;;;33.25;31.08;;;;;;;;;;5009933;28;20057;-94
2023/12/19 11:02:53;;;;;;;28.98;27.10;;;;;;;;;;5014884;28;20050;-93
2023/12/19 11:05:24;;;;;;;30.45;28.60;;;;;;;;;;5015352;28;20046;-94
2023/12/19 11:07:51;;;;;;;33.13;30.88;;;;;;;;;;5015123;28;20081;-93
2023/12/19 11:10:25;;;;;;;31.63;29.23;;;;;;;;;;5015180;28;20046;-93
2023/12/19 11:12:52;;;;;;;31.33;29.13;;;;;;;;;;4995398;28;20142;-93
2023/12/19 11:15:19;;;;;;;37.33;35.63;;;;;;;;;;5002873;28;20100;-92
2023/12/19 11:17:50;;;;;;;37.90;35.47;;;;;;;;;;5020606;28;20050;-91
2023/12/19 11:20:20;;;;;;;31.98;30.48;;;;;;;;;;5020620;28;20109;-91
2023/12/19 11:22:52;;;;;;;33.17;31.55;;;;;;;;;;5018344;28;20053;-93
2023/12/19 11:25:22;;;;;;;32.65;30.63;;;;;;;;;;5013973;28;20046;-93
2023/12/19 11:27:54;;;;;;;42.03;39.60;;;;;;;;;;5015955;28;20077;-93
2023/12/19 11:30:35;;;;;;;43.85;40.90;;;;;;;;;;5015002;28;20050;-91
2023/12/19 11:33:01;;;;;;;39.10;37.28;;;;;;;;;;5014010;28;20053;-92
2023/12/19 11:35:29;;;;;;;34.10;31.73;;;;;;;;;;5014341;28;20042;-92
2023/12/19 11:38:10;;;;;;;33.63;31.48;;;;;;;;;;5014441;28;20053;-92
2023/12/19 11:40:50;;;;;;;35.97;34.03;;;;;;;;;;5014391;28;20131;-93
2023/12/19 11:43:36;;;;;;;25.70;24.45;;;;;;;;;;5011846;28;20046;-92
2023/12/19 11:46:16;;;;;;;28.88;27.10;;;;;;;;;;5013327;28;20050;-93
2023/12/19 11:48:44;;;;;;;32.78;31.23;;;;;;;;;;5013548;28;20058;-93
2023/12/19 11:51:11;;;;;;;36.42;34.33;;;;;;;;;;5013377;28;20486;-92
2023/12/19 11:53:38;;;;;;;31.35;28.92;;;;;;;;;;5013502;28;20406;-92
2023/12/19 11:56:08;;;;;;;35.33;33.00;;;;;;;;;;5009744;28;20159;-92
2023/12/19 11:58:35;;;;;;;30.60;27.75;;;;;;;;;;4994085;28;20591;-92
2023/12/19 12:01:02;;;;;;;28.08;26.15;;;;;;;;;;5003626;28;20108;-93
2023/12/19 12:03:29;;;;;;;30.13;27.95;;;;;;;;;;5017599;28;20141;-93
2023/12/19 12:05:56;;;;;;;29.48;27.83;;;;;;;;;;5014535;28;20041;-93
2023/12/19 12:08:22;;;;;;;26.73;25.00;;;;;;;;;;5011814;28;20096;-92
2023/12/19 12:10:58;;;;;;;24.23;22.40;;;;;;;;;;5013698;28;20503;-92
2023/12/19 12:13:27;;;;;;;24.58;22.95;;;;;;;;;;5012666;28;20128;-93
2023/12/19 12:15:54;;;;;;;29.63;27.63;;;;;;;;;;5011379;28;20056;-92
2023/12/19 12:18:20;;;;;;;27.23;25.88;;;;;;;;;;5014218;28;20042;-94
2023/12/19 12:20:47;;;;;;;28.42;26.77;;;;;;;;;;5012478;28;20049;-93
2023/12/19 12:23:17;;;;;;;30.80;28.80;;;;;;;;;;5014172;28;20046;-93
2023/12/19 12:25:44;;;;;;;30.27;28.48;;;;;;;;;;5013494;28;20111;-94
2023/12/19 12:28:11;;;;;;;34.22;32.10;;;;;;;;;;5004627;28;20152;-93
2023/12/19 12:30:39;;;;;;;38.13;35.65;;;;;;;;;;5012945;28;20049;-93
2023/12/19 12:33:18;;;;;;;31.48;29.60;;;;;;;;;;5009220;28;20112;-94
2023/12/19 12:35:44;;;;;;;32.05;28.83;;;;;;;;;;5012655;28;20042;-93
2023/12/19 12:38:17;;;;;;;38.33;33.40;;;;;;;;;;5011317;28;20080;-92
2023/12/19 12:40:54;;;;;;;31.63;29.70;;;;;;;;;;5012288;28;20053;-93
2023/12/19 12:43:33;;;;;;;33.33;30.55;;;;;;;;;;5013748;28;20410;-93
2023/12/19 12:46:08;;;;;;;35.85;34.00;;;;;;;;;;5013496;28;20120;-93
2023/12/19 12:48:35;;;;;;;27.15;25.67;;;;;;;;;;5014936;28;20066;-93
2023/12/19 12:51:02;;;;;;;37.95;35.25;;;;;;;;;;5013829;28;20097;-93
2023/12/19 12:53:29;;;;;;;33.97;31.95;;;;;;;;;;5013664;28;20565;-92
2023/12/19 12:56:05;;;;;;;35.45;32.67;;;;;;;;;;5014552;28;20062;-92
2023/12/19 12:58:32;;;;;;;38.72;35.75;;;;;;;;;;5016882;28;20133;-92
2023/12/19 13:00:58;;;;;;;28.80;27.20;;;;;;;;;;5019994;28;20141;-95
2023/12/19 13:03:26;;;;;;;30.55;27.98;;;;;;;;;;5018140;28;20503;-94
2023/12/19 13:05:53;;;;;;;37.33;35.42;;;;;;;;;;4998155;28;20077;-94
2023/12/19 13:08:20;;;;;;;37.45;35.50;;;;;;;;;;4997793;28;20096;-94
2023/12/19 13:10:46;;;;;;;30.73;27.73;;;;;;;;;;4997971;28;20061;-94
2023/12/19 13:13:13;;;;;;;32.47;29.88;;;;;;;;;;4997605;28;20085;-95
2023/12/19 13:15:40;;;;;;;37.03;34.80;;;;;;;;;;4998100;28;20590;-93
2023/12/19 13:18:08;;;;;;;27.50;26.38;;;;;;;;;;4997454;28;20057;-93
2023/12/19 13:20:37;;;;;;;36.22;34.25;;;;;;;;;;5001452;28;20050;-93
2023/12/19 13:23:06;;;;;;;34.55;32.30;;;;;;;;;;5016882;28;20050;-93
2023/12/19 13:25:33;;;;;;;36.05;33.97;;;;;;;;;;5017043;28;20056;-94
2023/12/19 13:28:01;;;;;;;31.90;29.60;;;;;;;;;;5016641;28;20057;-95
2023/12/19 13:30:29;;;;;;;31.80;29.70;;;;;;;;;;5017026;28;20046;-94
2023/12/19 13:32:56;;;;;;;31.48;28.98;;;;;;;;;;5017518;28;20527;-94
2023/12/19 13:35:22;;;;;;;32.58;30.83;;;;;;;;;;5017000;28;20046;-94
2023/12/19 13:37:50;;;;;;;24.73;22.33;;;;;;;;;;5014817;28;20046;-94
2023/12/19 13:40:17;;;;;;;30.08;27.92;;;;;;;;;;5014241;28;20495;-95
2023/12/19 13:42:43;;;;;;;32.80;31.17;;;;;;;;;;5016558;28;20046;-94
2023/12/19 13:45:10;;;;;;;36.60;33.80;;;;;;;;;;5016875;28;20920;-94
2023/12/19 13:47:36;;;;;;;33.47;31.30;;;;;;;;;;5016821;28;20054;-94
2023/12/19 13:50:04;;;;;;;31.23;29.88;;;;;;;;;;5016334;28;20108;-94
2023/12/19 13:52:31;;;;;;;36.28;34.17;;;;;;;;;;5017085;28;20080;-93
2023/12/19 13:54:59;;;;;;;29.92;27.42;;;;;;;;;;5016594;28;20549;-94
2023/12/19 13:57:25;;;;;;;22.92;21.98;;;;;;;;;;5016039;28;20050;-94
2023/12/19 13:59:52;;;;;;;33.75;31.10;;;;;;;;;;5016207;28;20184;-93
2023/12/19 14:02:19;;;;;;;37.47;34.53;;;;;;;;;;5016687;28;20184;-94
2023/12/19 14:04:45;;;;;;;28.65;26.40;;;;;;;;;;5016155;28;20450;-94
2023/12/19 14:07:14;;;;;;;44.60;42.08;;;;;;;;;;5015576;28;20046;-93
2023/12/19 14:09:40;;;;;;;24.92;23.73;;;;;;;;;;5015091;28;20081;-89
2023/12/19 14:12:09;;;;;;;24.85;23.27;;;;;;;;;;5014242;28;20786;-92
2023/12/19 14:14:35;;;;;;;21.35;20.05;;;;;;;;;;5007240;28;20092;-92
2023/12/19 14:17:02;;;;;;;27.35;25.10;;;;;;;;;;5016092;28;20042;-92